Christina Belcher — WDD3948 — position and weather

sailwx.info

Track history (hours):
 
Tides and Currents Weather Stations Pressure Air Temp Water Temp Dewpoint Dewpoint Depression Visibility Wind Speed Wind Dir Waves Ship Positions

Christina Belcher

Owner: Florida Marine, LLC, Mandeville, LA. More information available from US FCC via Universal Licensing System and Coast Guard Vessel Documentation Center.

Last reported at 2017-Nov-24 16:29 UTC. Time now 2017-Nov-24 22:01 UTC.
Position N 30°04' W 093°42'.

Length 28 m; draft 2.9 m.

Type: Towing. MMSI: 367138450.

Date/timePositionNaut miles runAvg speedWind from/ knotsBaromVisibWave heightAir tempDewpointWater temp
2017-Nov-24 16:29N 30°04' W 093°42'4 7.4
2017-Nov-24 16:00N 30°04' W 093°38'3 6.8
2017-Nov-24 15:30N 30°04' W 093°34'3 6.8
2017-Nov-24 15:00N 30°04' W 093°30'3 6.7
2017-Nov-24 14:30N 30°04' W 093°26'3 6.5
2017-Nov-24 14:00N 30°04' W 093°22'3 5.2
2017-Nov-24 13:30N 30°05' W 093°20'2 3.9
2017-Nov-24 13:00N 30°05' W 093°18'1 2.7
2017-Nov-24 12:30N 30°04' W 093°16'0 0.0
2017-Nov-24 12:00N 30°04' W 093°16'0 0.0
2017-Nov-24 11:30N 30°04' W 093°16'0 0.0
2017-Nov-24 11:00N 30°04' W 093°16'0 0.0
2017-Nov-24 10:30N 30°04' W 093°16'0 0.0
2017-Nov-24 10:00N 30°04' W 093°16'0 0.0
2017-Nov-24 09:30N 30°04' W 093°16'0 0.0
2017-Nov-24 09:00N 30°04' W 093°16'0 0.0
2017-Nov-24 08:30N 30°04' W 093°16'0 0.1
2017-Nov-24 08:00N 30°04' W 093°16'1 2.1
2017-Nov-24 07:30N 30°03' W 093°16'1 2.4
2017-Nov-24 07:00N 30°02' W 093°15'0 0.9
2017-Nov-24 06:30N 30°02' W 093°15'0 0.0
2017-Nov-24 06:00N 30°02' W 093°15'0 0.0
2017-Nov-24 05:30N 30°02' W 093°15'0 0.0
2017-Nov-24 05:00N 30°02' W 093°15'0 0.0
2017-Nov-24 04:30N 30°02' W 093°15'0 0.0
2017-Nov-24 04:00N 30°02' W 093°15'0 0.0
2017-Nov-24 03:30N 30°02' W 093°15'0 0.0
2017-Nov-24 03:00N 30°02' W 093°15'0 0.0
2017-Nov-24 02:30N 30°02' W 093°15'1 3.0
2017-Nov-24 02:00N 30°01' W 093°14'2 4.3
2017-Nov-24 01:30N 29°59' W 093°12'1 1.5
2017-Nov-24 01:00N 29°59' W 093°12'0 0.2
2017-Nov-24 00:30N 29°59' W 093°12'2 4.4
2017-Nov-24 00:00N 29°57' W 093°10'3 5.6
2017-Nov-23 23:30N 29°56' W 093°07'3 6.1
2017-Nov-23 23:00N 29°56' W 093°03'1 1.2
2017-Nov-23 22:29N 29°56' W 093°03'36 5.1
2017-Nov-23 15:28N 29°51' W 092°22'3 5.7
2017-Nov-23 15:01N 29°50' W 092°19'3 5.5
2017-Nov-23 14:30N 29°49' W 092°16'3 6.1
2017-Nov-23 14:00N 29°47' W 092°13'2 4.6
2017-Nov-23 13:30N 29°47' W 092°11'3 5.4
2017-Nov-23 13:01N 29°47' W 092°08'3 5.8
2017-Nov-23 12:30N 29°48' W 092°04'3 5.9
2017-Nov-23 12:00N 29°49' W 092°01'3 5.9
2017-Nov-23 11:31N 29°50' W 091°58'  
2017-Nov-17 19:52N 29°51' W 091°56'2 5.0
2017-Nov-17 19:31N 29°50' W 091°58'3 5.2
2017-Nov-17 18:59N 29°49' W 092°01'2 4.9
2017-Nov-17 18:30N 29°49' W 092°03'2 4.9
2017-Nov-17 18:01N 29°48' W 092°06'2 4.8
2017-Nov-17 17:30N 29°47' W 092°09'3 5.0
2017-Nov-17 17:01N 29°47' W 092°12'0 0.6
2017-Nov-17 16:31N 29°47' W 092°11'0 0.6
2017-Nov-17 16:01N 29°47' W 092°12'0 0.0
2017-Nov-17 15:30N 29°47' W 092°12'0 0.2
2017-Nov-17 15:00N 29°47' W 092°11'0 0.3
2017-Nov-17 14:31N 29°47' W 092°12'0 0.0
2017-Nov-17 14:00N 29°47' W 092°12'0 0.0
2017-Nov-17 13:30N 29°47' W 092°12'0 0.0
2017-Nov-17 13:01N 29°47' W 092°12'0 0.0
2017-Nov-17 12:31N 29°47' W 092°12'0 0.0
2017-Nov-17 12:00N 29°47' W 092°12'0 0.0
2017-Nov-17 11:30N 29°47' W 092°12'0 0.0
2017-Nov-17 11:01N 29°47' W 092°12'0 0.0
2017-Nov-17 10:31N 29°47' W 092°12'0 0.0
2017-Nov-17 10:01N 29°47' W 092°12'0 0.0
2017-Nov-17 09:31N 29°47' W 092°12'0 0.0
2017-Nov-17 09:01N 29°47' W 092°12'0 0.1
2017-Nov-17 08:31N 29°47' W 092°12'0 0.9
2017-Nov-17 08:01N 29°47' W 092°11'0 0.8
2017-Nov-17 07:31N 29°47' W 092°12'1 1.0
2017-Nov-17 07:00N 29°47' W 092°12'1 2.0
2017-Nov-17 06:30N 29°47' W 092°13'2 3.9
2017-Nov-17 06:00N 29°48' W 092°15'0 0.2
2017-Nov-17 05:30N 29°48' W 092°15'1 3.0
2017-Nov-17 05:01N 29°49' W 092°17'1 2.4
2017-Nov-17 04:31N 29°50' W 092°18'2 3.8
2017-Nov-17 04:00N 29°51' W 092°20'2 4.1
2017-Nov-17 03:31N 29°51' W 092°22'1 2.1
2017-Nov-17 03:00N 29°52' W 092°23'0 0.0
2017-Nov-17 02:31N 29°52' W 092°23'0 0.0
2017-Nov-17 02:00N 29°52' W 092°23'0 0.0
2017-Nov-17 01:31N 29°52' W 092°23'0 0.1
2017-Nov-17 01:00N 29°52' W 092°23'0 0.3
2017-Nov-17 00:28N 29°53' W 092°23'31 3.3
2017-Nov-16 15:01N 29°56' W 092°58'0 4.9
2017-Nov-16 15:00N 29°56' W 092°59'2 4.8
2017-Nov-16 14:30N 29°56' W 093°01'1 2.1
2017-Nov-16 13:54N 29°56' W 093°03'0 0.0
2017-Nov-16 11:44N 29°56' W 093°03'0 0.0
2017-Nov-16 11:30N 29°56' W 093°03'0 0.0
2017-Nov-16 10:59N 29°56' W 093°03'0 0.0
2017-Nov-16 10:27N 29°56' W 093°03'0 0.0
2017-Nov-16 10:00N 29°56' W 093°03'0 0.0
2017-Nov-16 09:31N 29°56' W 093°03'0 0.0
2017-Nov-16 09:01N 29°56' W 093°03'0 0.0
2017-Nov-16 08:30N 29°56' W 093°03'0 0.0
2017-Nov-16 08:00N 29°56' W 093°03'0 0.0
2017-Nov-16 07:31N 29°56' W 093°03'0 0.0
2017-Nov-16 07:00N 29°56' W 093°03'0 0.0
2017-Nov-16 06:30N 29°56' W 093°03'0 0.0
2017-Nov-16 06:00N 29°56' W 093°03'0 0.0
2017-Nov-16 05:28N 29°56' W 093°03'0 0.0
2017-Nov-16 05:00N 29°56' W 093°03'0 0.1
2017-Nov-16 04:27N 29°56' W 093°03'1 1.6
2017-Nov-16 04:01N 29°56' W 093°04'2 4.1
2017-Nov-16 03:30N 29°56' W 093°06'2 4.8
2017-Nov-16 03:01N 29°56' W 093°09'2 4.5
2017-Nov-16 02:31N 29°57' W 093°11'2 4.8
2017-Nov-16 02:00N 29°59' W 093°13'2 4.3
2017-Nov-16 01:30N 30°01' W 093°14'2 4.4
2017-Nov-16 01:01N 30°03' W 093°16'2 4.5
2017-Nov-16 00:30N 30°05' W 093°17'1 2.1
2017-Nov-16 00:01N 30°05' W 093°18'1 1.5
2017-Nov-15 23:30N 30°06' W 093°18'0 0.0
2017-Nov-15 23:00N 30°06' W 093°18'0 0.2
2017-Nov-15 22:30N 30°06' W 093°18'2 4.0
2017-Nov-15 22:01N 30°05' W 093°20'2 3.3
2017-Nov-15 21:30N 30°04' W 093°21'2 3.1
2017-Nov-15 21:00N 30°04' W 093°23'0 0.1
2017-Nov-15 20:30N 30°04' W 093°23'2 3.8
2017-Nov-15 20:00N 30°04' W 093°25'3 5.1
2017-Nov-15 19:30N 30°04' W 093°28'3 5.2
2017-Nov-15 19:00N 30°04' W 093°31'3 5.1
2017-Nov-15 18:30N 30°04' W 093°34'3 5.0
2017-Nov-15 17:55N 30°04' W 093°38'2 4.1
2017-Nov-15 17:30N 30°04' W 093°40'  
Track history (hours):
 
Tides and Currents Weather Stations Pressure Air Temp Water Temp Dewpoint Dewpoint Depression Visibility Wind Speed Wind Dir Waves Ship Positions

Christina Belcher

Owner: Florida Marine, LLC, Mandeville, LA. More information available from US FCC via Universal Licensing System and Coast Guard Vessel Documentation Center.

Last reported at 2017-Nov-24 16:29 UTC. Time now 2017-Nov-24 22:01 UTC.
Position N 30°04' W 093°42'.

Length 28 m; draft 2.9 m.

Type: Towing. MMSI: 367138450.

Date/timePositionNaut miles runAvg speedWind from/ knotsBaromVisibWave heightAir tempDewpointWater temp
2017-Nov-24 16:29N 30°04' W 093°42'4 7.4
2017-Nov-24 16:00N 30°04' W 093°38'3 6.8
2017-Nov-24 15:30N 30°04' W 093°34'3 6.8
2017-Nov-24 15:00N 30°04' W 093°30'3 6.7
2017-Nov-24 14:30N 30°04' W 093°26'3 6.5
2017-Nov-24 14:00N 30°04' W 093°22'3 5.2
2017-Nov-24 13:30N 30°05' W 093°20'2 3.9
2017-Nov-24 13:00N 30°05' W 093°18'1 2.7
2017-Nov-24 12:30N 30°04' W 093°16'0 0.0
2017-Nov-24 12:00N 30°04' W 093°16'0 0.0
2017-Nov-24 11:30N 30°04' W 093°16'0 0.0
2017-Nov-24 11:00N 30°04' W 093°16'0 0.0
2017-Nov-24 10:30N 30°04' W 093°16'0 0.0
2017-Nov-24 10:00N 30°04' W 093°16'0 0.0
2017-Nov-24 09:30N 30°04' W 093°16'0 0.0
2017-Nov-24 09:00N 30°04' W 093°16'0 0.0
2017-Nov-24 08:30N 30°04' W 093°16'0 0.1
2017-Nov-24 08:00N 30°04' W 093°16'1 2.1
2017-Nov-24 07:30N 30°03' W 093°16'1 2.4
2017-Nov-24 07:00N 30°02' W 093°15'0 0.9
2017-Nov-24 06:30N 30°02' W 093°15'0 0.0
2017-Nov-24 06:00N 30°02' W 093°15'0 0.0
2017-Nov-24 05:30N 30°02' W 093°15'0 0.0
2017-Nov-24 05:00N 30°02' W 093°15'0 0.0
2017-Nov-24 04:30N 30°02' W 093°15'0 0.0
2017-Nov-24 04:00N 30°02' W 093°15'0 0.0
2017-Nov-24 03:30N 30°02' W 093°15'0 0.0
2017-Nov-24 03:00N 30°02' W 093°15'0 0.0
2017-Nov-24 02:30N 30°02' W 093°15'1 3.0
2017-Nov-24 02:00N 30°01' W 093°14'2 4.3
2017-Nov-24 01:30N 29°59' W 093°12'1 1.5
2017-Nov-24 01:00N 29°59' W 093°12'0 0.2
2017-Nov-24 00:30N 29°59' W 093°12'2 4.4
2017-Nov-24 00:00N 29°57' W 093°10'3 5.6
2017-Nov-23 23:30N 29°56' W 093°07'3 6.1
2017-Nov-23 23:00N 29°56' W 093°03'1 1.2
2017-Nov-23 22:29N 29°56' W 093°03'36 5.1
2017-Nov-23 15:28N 29°51' W 092°22'3 5.7
2017-Nov-23 15:01N 29°50' W 092°19'3 5.5
2017-Nov-23 14:30N 29°49' W 092°16'3 6.1
2017-Nov-23 14:00N 29°47' W 092°13'2 4.6
2017-Nov-23 13:30N 29°47' W 092°11'3 5.4
2017-Nov-23 13:01N 29°47' W 092°08'3 5.8
2017-Nov-23 12:30N 29°48' W 092°04'3 5.9
2017-Nov-23 12:00N 29°49' W 092°01'3 5.9
2017-Nov-23 11:31N 29°50' W 091°58'  
2017-Nov-17 19:52N 29°51' W 091°56'2 5.0
2017-Nov-17 19:31N 29°50' W 091°58'3 5.2
2017-Nov-17 18:59N 29°49' W 092°01'2 4.9
2017-Nov-17 18:30N 29°49' W 092°03'2 4.9
2017-Nov-17 18:01N 29°48' W 092°06'2 4.8
2017-Nov-17 17:30N 29°47' W 092°09'3 5.0
2017-Nov-17 17:01N 29°47' W 092°12'0 0.6
2017-Nov-17 16:31N 29°47' W 092°11'0 0.6
2017-Nov-17 16:01N 29°47' W 092°12'0 0.0
2017-Nov-17 15:30N 29°47' W 092°12'0 0.2
2017-Nov-17 15:00N 29°47' W 092°11'0 0.3
2017-Nov-17 14:31N 29°47' W 092°12'0 0.0
2017-Nov-17 14:00N 29°47' W 092°12'0 0.0
2017-Nov-17 13:30N 29°47' W 092°12'0 0.0
2017-Nov-17 13:01N 29°47' W 092°12'0 0.0
2017-Nov-17 12:31N 29°47' W 092°12'0 0.0
2017-Nov-17 12:00N 29°47' W 092°12'0 0.0
2017-Nov-17 11:30N 29°47' W 092°12'0 0.0
2017-Nov-17 11:01N 29°47' W 092°12'0 0.0
2017-Nov-17 10:31N 29°47' W 092°12'0 0.0
2017-Nov-17 10:01N 29°47' W 092°12'0 0.0
2017-Nov-17 09:31N 29°47' W 092°12'0 0.0
2017-Nov-17 09:01N 29°47' W 092°12'0 0.1
2017-Nov-17 08:31N 29°47' W 092°12'0 0.9
2017-Nov-17 08:01N 29°47' W 092°11'0 0.8
2017-Nov-17 07:31N 29°47' W 092°12'1 1.0
2017-Nov-17 07:00N 29°47' W 092°12'1 2.0
2017-Nov-17 06:30N 29°47' W 092°13'2 3.9
2017-Nov-17 06:00N 29°48' W 092°15'0 0.2
2017-Nov-17 05:30N 29°48' W 092°15'1 3.0
2017-Nov-17 05:01N 29°49' W 092°17'1 2.4
2017-Nov-17 04:31N 29°50' W 092°18'2 3.8
2017-Nov-17 04:00N 29°51' W 092°20'2 4.1
2017-Nov-17 03:31N 29°51' W 092°22'1 2.1
2017-Nov-17 03:00N 29°52' W 092°23'0 0.0
2017-Nov-17 02:31N 29°52' W 092°23'0 0.0
2017-Nov-17 02:00N 29°52' W 092°23'0 0.0
2017-Nov-17 01:31N 29°52' W 092°23'0 0.1
2017-Nov-17 01:00N 29°52' W 092°23'0 0.3
2017-Nov-17 00:28N 29°53' W 092°23'31 3.3
2017-Nov-16 15:01N 29°56' W 092°58'0 4.9
2017-Nov-16 15:00N 29°56' W 092°59'2 4.8
2017-Nov-16 14:30N 29°56' W 093°01'1 2.1
2017-Nov-16 13:54N 29°56' W 093°03'0 0.0
2017-Nov-16 11:44N 29°56' W 093°03'0 0.0
2017-Nov-16 11:30N 29°56' W 093°03'0 0.0
2017-Nov-16 10:59N 29°56' W 093°03'0 0.0
2017-Nov-16 10:27N 29°56' W 093°03'0 0.0
2017-Nov-16 10:00N 29°56' W 093°03'0 0.0
2017-Nov-16 09:31N 29°56' W 093°03'0 0.0
2017-Nov-16 09:01N 29°56' W 093°03'0 0.0
2017-Nov-16 08:30N 29°56' W 093°03'0 0.0
2017-Nov-16 08:00N 29°56' W 093°03'0 0.0
2017-Nov-16 07:31N 29°56' W 093°03'0 0.0
2017-Nov-16 07:00N 29°56' W 093°03'0 0.0
2017-Nov-16 06:30N 29°56' W 093°03'0 0.0
2017-Nov-16 06:00N 29°56' W 093°03'0 0.0
2017-Nov-16 05:28N 29°56' W 093°03'0 0.0
2017-Nov-16 05:00N 29°56' W 093°03'0 0.1
2017-Nov-16 04:27N 29°56' W 093°03'1 1.6
2017-Nov-16 04:01N 29°56' W 093°04'2 4.1
2017-Nov-16 03:30N 29°56' W 093°06'2 4.8
2017-Nov-16 03:01N 29°56' W 093°09'2 4.5
2017-Nov-16 02:31N 29°57' W 093°11'2 4.8
2017-Nov-16 02:00N 29°59' W 093°13'2 4.3
2017-Nov-16 01:30N 30°01' W 093°14'2 4.4
2017-Nov-16 01:01N 30°03' W 093°16'2 4.5
2017-Nov-16 00:30N 30°05' W 093°17'1 2.1
2017-Nov-16 00:01N 30°05' W 093°18'1 1.5
2017-Nov-15 23:30N 30°06' W 093°18'0 0.0
2017-Nov-15 23:00N 30°06' W 093°18'0 0.2
2017-Nov-15 22:30N 30°06' W 093°18'2 4.0
2017-Nov-15 22:01N 30°05' W 093°20'2 3.3
2017-Nov-15 21:30N 30°04' W 093°21'2 3.1
2017-Nov-15 21:00N 30°04' W 093°23'0 0.1
2017-Nov-15 20:30N 30°04' W 093°23'2 3.8
2017-Nov-15 20:00N 30°04' W 093°25'3 5.1
2017-Nov-15 19:30N 30°04' W 093°28'3 5.2
2017-Nov-15 19:00N 30°04' W 093°31'3 5.1
2017-Nov-15 18:30N 30°04' W 093°34'3 5.0
2017-Nov-15 17:55N 30°04' W 093°38'2 4.1
2017-Nov-15 17:30N 30°04' W 093°40'  

Dump ship's entire track history